createdAt,value
2022-09-20T00:03:08.224Z,4.95
2022-09-20T00:09:01.615Z,4.77
2022-09-20T00:14:53.684Z,6.05
2022-09-20T00:20:46.463Z,5.55
2022-09-20T00:26:39.271Z,7.73
2022-09-20T00:32:31.599Z,5.82
2022-09-20T00:38:23.904Z,5.82
2022-09-20T00:44:34.372Z,4.78
2022-09-20T00:50:30.065Z,5.20
2022-09-20T00:56:25.040Z,6.38
2022-09-20T01:02:19.584Z,4.07
2022-09-20T01:08:12.183Z,4.20
2022-09-20T01:14:05.023Z,4.82
2022-09-20T01:20:16.425Z,3.47
2022-09-20T01:26:23.774Z,3.75
2022-09-20T01:32:19.924Z,5.95
2022-09-20T01:38:11.924Z,3.63
2022-09-20T01:44:04.081Z,6.32
2022-09-20T01:49:55.860Z,4.70
2022-09-20T01:56:07.066Z,2.40
2022-09-20T02:02:06.644Z,4.38
2022-09-20T02:08:07.645Z,3.90
2022-09-20T02:14:02.803Z,3.08
2022-09-20T02:20:03.609Z,2.80
2022-09-20T02:26:08.310Z,2.15
2022-09-20T02:32:10.011Z,5.72
2022-09-20T02:38:20.802Z,4.20
2022-09-20T02:44:23.749Z,5.00
2022-09-20T02:50:34.643Z,3.17
2022-09-20T02:56:35.990Z,4.57
2022-09-20T03:02:36.408Z,6.95
2022-09-20T03:08:48.012Z,4.83
2022-09-20T03:14:47.212Z,9.77
2022-09-20T03:20:48.413Z,6.88
2022-09-20T03:27:04.923Z,4.90
2022-09-20T03:33:15.690Z,6.10
2022-09-20T03:39:26.784Z,11.55
2022-09-20T03:45:37.797Z,6.28
2022-09-20T03:51:33.935Z,5.25
2022-09-20T03:57:35.351Z,5.97
2022-09-20T04:03:46.360Z,10.55
2022-09-20T04:10:17.749Z,6.43
2022-09-20T04:16:15.392Z,6.25
2022-09-20T04:22:08.675Z,6.13
2022-09-20T04:33:54.855Z,7.25
2022-09-20T04:39:49.479Z,9.13
2022-09-20T04:51:52.127Z,7.15
2022-09-20T04:58:04.887Z,16.17
2022-09-20T05:04:16.207Z,11.00
2022-09-20T05:10:17.356Z,13.63
2022-09-20T05:16:18.644Z,17.27
2022-09-20T05:22:21.638Z,17.55
2022-09-20T05:28:13.640Z,16.52
2022-09-20T05:34:16.664Z,12.03
2022-09-20T05:40:13.366Z,14.45
2022-09-20T05:46:14.891Z,12.77
2022-09-20T05:52:25.828Z,13.23
2022-09-20T05:58:24.013Z,11.52
2022-09-20T06:04:31.835Z,9.30
2022-09-20T06:10:40.585Z,15.48
2022-09-20T06:16:44.761Z,8.70
2022-09-20T06:22:47.514Z,7.22
2022-09-20T06:28:41.507Z,9.57
2022-09-20T06:34:34.147Z,8.65
2022-09-20T06:40:53.197Z,7.87
2022-09-20T06:46:47.607Z,8.10
2022-09-20T06:52:42.446Z,7.35
2022-09-20T06:58:34.805Z,8.10
2022-09-20T07:04:27.160Z,8.27
2022-09-20T07:10:19.517Z,15.05
2022-09-20T07:16:14.375Z,6.90
2022-09-20T07:22:07.909Z,7.70
2022-09-20T07:27:59.978Z,7.18
2022-09-20T07:33:52.820Z,10.15
2022-09-20T07:39:45.899Z,7.47
2022-09-20T07:45:40.736Z,6.40
2022-09-20T07:51:33.876Z,5.05
2022-09-20T07:57:25.838Z,5.95
2022-09-20T08:03:18.066Z,7.85
2022-09-20T08:09:11.451Z,6.85
2022-09-20T08:15:04.501Z,4.00
2022-09-20T08:21:06.210Z,7.03
2022-09-20T08:26:59.468Z,3.83
2022-09-20T08:32:53.925Z,6.05
2022-09-20T08:45:00.711Z,4.78
2022-09-20T08:50:52.707Z,3.55
2022-09-20T08:56:46.620Z,7.25
2022-09-20T09:02:39.236Z,5.30
2022-09-20T09:08:38.541Z,5.33
2022-09-20T09:15:11.037Z,3.90
2022-09-20T09:21:05.194Z,7.18
2022-09-20T09:27:16.618Z,3.78
2022-09-20T09:33:24.226Z,5.32
2022-09-20T09:39:17.498Z,4.50
2022-09-20T09:45:11.457Z,4.57
2022-09-20T09:51:15.688Z,6.30
2022-09-20T09:57:27.057Z,5.25
2022-09-20T10:03:28.279Z,4.57
2022-09-20T10:09:39.527Z,5.30
2022-09-20T10:15:50.659Z,3.65
2022-09-20T10:21:44.157Z,3.97
2022-09-20T10:27:49.410Z,5.13
2022-09-20T10:33:41.596Z,5.85
2022-09-20T10:39:35.907Z,6.22
2022-09-20T10:45:59.196Z,6.80
2022-09-20T10:52:00.899Z,3.42
2022-09-20T10:58:03.580Z,4.38
2022-09-20T11:04:07.652Z,3.90
2022-09-20T11:10:02.988Z,3.08
2022-09-20T11:16:10.638Z,4.03
2022-09-20T11:22:02.452Z,4.03
2022-09-20T11:27:58.419Z,3.63
2022-09-20T11:33:53.508Z,2.75
2022-09-20T11:39:51.359Z,2.00
2022-09-20T11:45:44.343Z,3.40
2022-09-20T11:51:46.542Z,4.50
2022-09-20T11:57:38.857Z,3.00
2022-09-20T12:03:34.109Z,1.33
2022-09-20T12:09:30.848Z,2.05
2022-09-20T12:15:27.643Z,6.35
2022-09-20T12:21:22.056Z,2.53
2022-09-20T12:27:23.367Z,1.50
2022-09-20T12:33:20.471Z,1.75
2022-09-20T12:39:16.274Z,5.25
2022-09-20T12:45:18.488Z,4.10
2022-09-20T12:51:43.518Z,2.13
2022-09-20T12:57:35.977Z,4.18
2022-09-20T13:03:28.816Z,2.78
2022-09-20T13:09:21.578Z,2.80
2022-09-20T13:15:17.866Z,2.15
2022-09-20T13:21:10.307Z,3.00
2022-09-20T13:27:06.817Z,2.53
2022-09-20T13:33:17.649Z,3.00
2022-09-20T13:39:23.695Z,1.90
2022-09-20T13:45:16.860Z,3.60
2022-09-20T13:51:22.787Z,2.90
2022-09-20T13:57:21.919Z,2.75
2022-09-20T14:03:16.778Z,2.92
2022-09-20T14:09:11.400Z,4.80
2022-09-20T14:15:06.047Z,4.18
2022-09-20T14:21:01.074Z,4.28
2022-09-20T14:27:23.810Z,3.40
2022-09-20T14:33:21.066Z,3.05
2022-09-20T14:39:15.574Z,4.47
2022-09-20T14:45:08.178Z,2.80
2022-09-20T14:51:11.777Z,3.75
2022-09-20T14:57:04.020Z,4.28
2022-09-20T15:02:57.045Z,10.68
2022-09-20T15:08:49.200Z,7.45
2022-09-20T15:14:41.690Z,4.20
2022-09-20T15:20:35.216Z,4.65
2022-09-20T15:26:31.776Z,4.75
2022-09-20T15:32:24.306Z,4.38
2022-09-20T15:38:17.925Z,3.75
2022-09-20T15:50:03.090Z,3.92
2022-09-20T15:55:55.254Z,9.60
2022-09-20T16:01:48.386Z,4.00
2022-09-20T16:07:41.093Z,6.53
2022-09-20T16:13:33.603Z,3.73
2022-09-20T16:19:26.463Z,6.07
2022-09-20T16:25:18.253Z,3.88
2022-09-20T16:31:28.332Z,2.22
2022-09-20T16:37:20.716Z,8.82
2022-09-20T16:43:15.656Z,3.20
2022-09-20T16:49:09.753Z,8.00
2022-09-20T16:55:03.366Z,7.97
2022-09-20T17:01:02.651Z,4.87
2022-09-20T17:06:55.872Z,5.72
2022-09-20T17:12:52.703Z,3.42
2022-09-20T17:18:45.046Z,4.03
2022-09-20T17:24:37.525Z,6.25
2022-09-20T17:30:29.507Z,8.73
2022-09-20T17:36:25.066Z,4.20
2022-09-20T17:42:17.488Z,9.25
2022-09-20T17:48:10.995Z,10.15
2022-09-20T17:54:03.776Z,10.48
2022-09-20T17:59:56.986Z,9.27
2022-09-20T18:05:49.916Z,7.68
2022-09-20T18:11:45.556Z,9.90
2022-09-20T18:17:37.746Z,7.00
2022-09-20T18:23:29.699Z,17.10
2022-09-20T18:29:23.815Z,8.23
2022-09-20T18:35:15.645Z,7.03
2022-09-20T18:41:07.976Z,8.30
2022-09-20T18:47:01.539Z,10.23
2022-09-20T18:52:53.924Z,12.70
2022-09-20T18:58:45.932Z,15.10
2022-09-20T19:04:58.132Z,8.73
2022-09-20T19:11:02.137Z,10.15
2022-09-20T19:22:58.886Z,18.58
2022-09-20T19:28:55.240Z,19.50
2022-09-20T19:34:53.212Z,16.13
2022-09-20T19:40:46.716Z,15.07
2022-09-20T19:47:01.959Z,14.80
2022-09-20T19:52:59.539Z,13.95
2022-09-20T20:04:46.581Z,11.80
2022-09-20T20:10:49.936Z,14.40
2022-09-20T20:16:51.066Z,11.80
2022-09-20T20:22:57.136Z,12.38
2022-09-20T20:28:49.607Z,16.45
2022-09-20T20:34:42.468Z,13.43
2022-09-20T20:40:37.090Z,16.73
2022-09-20T20:52:22.257Z,19.05
2022-09-20T21:04:09.115Z,12.93
2022-09-20T21:10:01.876Z,15.35
2022-09-20T21:15:54.114Z,14.63
2022-09-20T21:21:48.054Z,13.45
2022-09-20T21:27:39.816Z,14.93
2022-09-20T21:33:32.986Z,15.70
2022-09-20T21:45:19.435Z,12.55
2022-09-20T21:57:03.666Z,14.13
2022-09-20T22:02:59.535Z,9.55
2022-09-20T22:08:53.338Z,14.00
2022-09-20T22:14:45.056Z,18.30
2022-09-20T22:20:37.176Z,11.23
2022-09-20T22:26:34.005Z,12.15
2022-09-20T22:32:26.432Z,8.52
2022-09-20T22:38:19.688Z,18.33
2022-09-20T22:44:12.446Z,15.10
2022-09-20T22:50:04.624Z,15.90
2022-09-20T22:56:11.085Z,17.00
2022-09-20T23:02:03.577Z,19.10
2022-09-20T23:07:56.516Z,18.87
2022-09-20T23:13:48.546Z,13.88
2022-09-20T23:19:39.932Z,15.48
2022-09-20T23:25:32.505Z,17.17
2022-09-20T23:31:25.925Z,17.00
2022-09-20T23:37:18.454Z,16.43
2022-09-20T23:43:13.083Z,24.97
2022-09-20T23:49:06.998Z,19.45
2022-09-20T23:54:59.286Z,21.10
